Terminal Aerodrome Forecast
Issued by NWS Corpus Christi, TX

Home | Current Version | Previous Version | Text Only | Print | Product List | Glossary On
Versions: 1 2 3 4 5 6 7 8 9 10 11 12 13 14 15
424
FTUS44 KCRP 121725
TAFCRP
TAF
KCRP 121725Z 1218/1318 16012G18KT P6SM SCT050
     FM130000 15008KT P6SM SCT020
      TEMPO 1308/1311 1SM BR BKN010
     FM131100 13003KT 2SM BR SCT002
      TEMPO 1311/1315 1SM BR BKN002
     FM131530 13007KT P6SM SCT040=

USA.gov is the U.S. government's official web portal to all federal, state and local government web resources and services.